DTTG

Gabès Matmata International Airport

Gabès, Tunisia
METAR DTTG 190900Z 04015KT 8000 BKN020 SCT030 17/12 Q1022 NOSIG
Observed Flight Rules
Apr-19 @ 09:00 UTC (53 minutes ago) Marginal Visual Flight Rules
Wind Visibility Clouds
40° at 15 knots 7,998 meters
  • Broken at 2,000' AGL
  • Scattered at 3,000' AGL
Temperatures Readings
Current 17°C / 63°F
Dewpoint 12°C / 54°F
Humidity 73%
Altimeter 30.18" Hg
Pressure 1022 hPa
Elevation 5
METAR DTTG 190900Z 04015KT 8000 BKN020 SCT030 17/12 Q1022 NOSIG
Observed Flight Rules
Apr-19 @ 09:00 UTC
(53 minutes ago)
MVFR
Wind Visibility
40° at 15 knots 7,998 meters
Clouds
  • Broken at 2,000' AGL
  • Scattered at 3,000' AGL
Temperature Dewpoint
17°C / 63°F 12°C / 54°F
Humidity Altimeter Pressure
73% 30.18" Hg 1022 hPa